Kyle, Texas
Current Conditions -  °F | °C
As of 9:50 AM on Saturday 20 Dec 2014 (Local Time) from KHYI Reporting Station
Haze Haze  
Wind Chill: 45°   Ceiling: 1500
Heat Index: 48°   Visibility: 5mi
Dew Point: 45°   Wind: 7mph
Humidity: 87%   Direction: 20°NNE
Pressure: 30.25"   Gusts: NA
Location:  29.99°N, 97.88°W
Report Text: KHYI 201550Z 02006KT 5SM BR OVC015 09/07 A3025
Loading
Personal Weather Stations






























Interactive Weather Map New forecast layout! Learn more

10-Day Weather Forecast

Advertisements
Track Severe Weather on mobile